createdAt,value
2022-12-23T00:02:05.820Z,3.92
2022-12-23T00:04:33.770Z,3.90
2022-12-23T00:07:01.326Z,3.94
2022-12-23T00:09:28.924Z,4.05
2022-12-23T00:12:15.259Z,4.07
2022-12-23T00:15:01.211Z,4.07
2022-12-23T00:17:29.022Z,4.11
2022-12-23T00:19:56.585Z,4.16
2022-12-23T00:22:44.262Z,4.20
2022-12-23T00:25:12.778Z,4.22
2022-12-23T00:27:40.478Z,4.27
2022-12-23T00:30:10.665Z,4.30
2022-12-23T00:32:39.130Z,4.31
2022-12-23T00:35:06.839Z,4.30
2022-12-23T00:37:34.371Z,4.29
2022-12-23T00:40:24.098Z,4.33
2022-12-23T00:42:54.137Z,4.36
2022-12-23T00:45:22.134Z,4.30
2022-12-23T00:48:08.410Z,4.30
2022-12-23T00:50:38.892Z,4.35
2022-12-23T00:53:06.775Z,4.38
2022-12-23T00:55:34.237Z,4.37
2022-12-23T00:58:02.132Z,4.40
2022-12-23T01:00:52.538Z,4.42
2022-12-23T01:03:38.976Z,4.39
2022-12-23T01:06:06.664Z,4.43
2022-12-23T01:08:34.457Z,4.32
2022-12-23T01:11:07.207Z,4.40
2022-12-23T01:13:35.900Z,4.44
2022-12-23T01:16:16.830Z,4.46
2022-12-23T01:18:45.551Z,4.41
2022-12-23T01:21:13.439Z,4.43
2022-12-23T01:23:41.251Z,4.47
2022-12-23T01:26:09.518Z,4.49
2022-12-23T01:28:37.337Z,4.42
2022-12-23T01:31:06.131Z,4.35
2022-12-23T01:33:33.976Z,4.27
2022-12-23T01:36:09.107Z,4.31
2022-12-23T01:38:37.032Z,4.33
2022-12-23T01:41:05.110Z,4.31
2022-12-23T01:43:48.497Z,4.35
2022-12-23T01:46:16.494Z,4.32
2022-12-23T01:48:45.712Z,4.34
2022-12-23T01:51:16.732Z,4.40
2022-12-23T01:53:47.788Z,4.42
2022-12-23T01:56:19.650Z,4.43
2022-12-23T01:59:00.460Z,4.47
2022-12-23T02:01:48.000Z,4.49
2022-12-23T02:04:22.140Z,4.51
2022-12-23T02:07:08.947Z,4.53
2022-12-23T02:09:40.680Z,4.50
2022-12-23T02:12:39.149Z,4.38
2022-12-23T02:15:47.067Z,4.41
2022-12-23T02:18:25.574Z,4.41
2022-12-23T02:21:11.408Z,4.42
2022-12-23T02:24:13.318Z,4.45
2022-12-23T02:26:59.537Z,4.48
2022-12-23T02:29:45.395Z,4.47
2022-12-23T02:32:27.266Z,4.52
2022-12-23T02:35:00.780Z,4.54
2022-12-23T02:37:53.771Z,4.50
2022-12-23T02:40:42.054Z,4.38
2022-12-23T02:43:22.547Z,4.38
2022-12-23T02:45:56.070Z,4.24
2022-12-23T02:48:27.312Z,4.35
2022-12-23T02:50:56.824Z,4.41
2022-12-23T02:53:38.639Z,4.44
2022-12-23T02:56:07.475Z,4.39
2022-12-23T02:58:58.624Z,4.41
2022-12-23T03:01:27.676Z,4.34
2022-12-23T03:03:55.642Z,4.27
2022-12-23T03:06:27.128Z,4.24
2022-12-23T03:08:57.155Z,4.33
2022-12-23T03:11:40.134Z,4.36
2022-12-23T03:14:15.319Z,4.38
2022-12-23T03:16:52.085Z,4.25
2022-12-23T03:19:37.457Z,4.25
2022-12-23T03:22:35.906Z,4.23
2022-12-23T03:25:12.892Z,4.29
2022-12-23T03:27:43.831Z,4.25
2022-12-23T03:30:15.171Z,4.35
2022-12-23T03:32:49.763Z,4.34
2022-12-23T03:35:20.483Z,4.31
2022-12-23T03:37:50.307Z,4.32
2022-12-23T03:40:32.673Z,4.35
2022-12-23T03:43:05.612Z,4.40
2022-12-23T03:45:39.826Z,4.42
2022-12-23T03:48:41.980Z,4.43
2022-12-23T03:51:15.059Z,4.44
2022-12-23T03:53:47.072Z,4.27
2022-12-23T03:56:26.539Z,4.26
2022-12-23T03:59:03.789Z,4.32
2022-12-23T04:02:01.312Z,4.30
2022-12-23T04:04:52.150Z,4.21
2022-12-23T04:07:24.259Z,4.20
2022-12-23T04:09:55.800Z,4.09
2022-12-23T04:12:24.902Z,4.23
2022-12-23T04:14:52.929Z,4.28
2022-12-23T04:17:21.573Z,4.31
2022-12-23T04:19:51.319Z,4.13
2022-12-23T04:22:19.149Z,4.22
2022-12-23T04:24:46.759Z,4.12
2022-12-23T04:27:15.479Z,4.05
2022-12-23T04:29:43.879Z,4.04
2022-12-23T04:32:11.534Z,4.08
2022-12-23T04:34:39.109Z,4.05
2022-12-23T04:37:06.977Z,4.07
2022-12-23T04:39:34.668Z,3.99
2022-12-23T04:42:02.412Z,4.06
2022-12-23T04:44:30.251Z,4.16
2022-12-23T04:46:58.056Z,4.20
2022-12-23T04:49:25.599Z,4.22
2022-12-23T04:51:53.492Z,4.18
2022-12-23T04:54:21.107Z,4.13
2022-12-23T04:56:48.626Z,4.04
2022-12-23T04:59:16.576Z,4.00
2022-12-23T05:01:44.251Z,4.08
2022-12-23T05:04:13.236Z,4.13
2022-12-23T05:06:41.190Z,4.06
2022-12-23T05:09:08.998Z,3.92
2022-12-23T05:11:41.843Z,4.02
2022-12-23T05:14:11.068Z,4.09
2022-12-23T05:16:39.005Z,4.11
2022-12-23T05:19:06.767Z,4.01
2022-12-23T05:21:34.616Z,3.87
2022-12-23T05:24:02.238Z,3.84
2022-12-23T05:26:29.853Z,3.86
2022-12-23T05:28:57.772Z,3.86
2022-12-23T05:31:25.355Z,3.86
2022-12-23T05:33:53.217Z,3.83
2022-12-23T05:36:21.117Z,3.83
2022-12-23T05:38:48.633Z,3.60
2022-12-23T05:41:17.149Z,3.81
2022-12-23T05:43:44.889Z,3.84
2022-12-23T05:46:12.492Z,3.72
2022-12-23T05:48:40.237Z,3.82
2022-12-23T05:51:08.083Z,3.57
2022-12-23T05:53:35.576Z,3.60
2022-12-23T05:56:06.743Z,3.70
2022-12-23T05:58:34.644Z,3.61
2022-12-23T06:01:03.254Z,3.49
2022-12-23T06:03:31.445Z,3.50
2022-12-23T06:05:59.178Z,3.50
2022-12-23T06:08:27.205Z,3.49
2022-12-23T06:10:55.283Z,3.52
2022-12-23T06:13:22.939Z,3.55
2022-12-23T06:15:50.569Z,3.45
2022-12-23T06:18:18.500Z,3.54
2022-12-23T06:20:47.638Z,3.62
2022-12-23T06:23:15.285Z,3.65
2022-12-23T06:25:43.192Z,3.70
2022-12-23T06:28:10.713Z,3.43
2022-12-23T06:30:38.239Z,3.60
2022-12-23T06:33:06.208Z,3.66
2022-12-23T06:35:33.751Z,3.63
2022-12-23T06:38:01.259Z,3.59
2022-12-23T06:40:29.838Z,3.60
2022-12-23T06:42:57.335Z,3.63
2022-12-23T06:45:25.016Z,3.52
2022-12-23T06:47:52.841Z,3.58
2022-12-23T06:50:21.560Z,3.40
2022-12-23T06:52:50.121Z,3.54
2022-12-23T06:55:17.965Z,3.51
2022-12-23T06:57:45.634Z,3.55
2022-12-23T07:00:14.720Z,3.51
2022-12-23T07:02:42.621Z,3.29
2022-12-23T07:05:10.207Z,3.49
2022-12-23T07:07:38.017Z,3.48
2022-12-23T07:10:07.818Z,3.48
2022-12-23T07:12:35.778Z,3.55
2022-12-23T07:15:03.593Z,3.52
2022-12-23T07:17:31.518Z,3.59
2022-12-23T07:19:59.015Z,3.70
2022-12-23T07:22:26.577Z,3.73
2022-12-23T07:24:54.419Z,3.73
2022-12-23T07:27:22.014Z,3.69
2022-12-23T07:29:50.847Z,3.59
2022-12-23T07:32:18.714Z,3.78
2022-12-23T07:34:46.409Z,3.74
2022-12-23T07:37:13.941Z,3.74
2022-12-23T07:39:44.246Z,3.72
2022-12-23T07:45:00.841Z,3.93
2022-12-23T07:47:28.483Z,3.99
2022-12-23T07:49:56.093Z,4.03
2022-12-23T07:52:23.946Z,3.99
2022-12-23T07:54:51.477Z,3.97
2022-12-23T07:57:19.065Z,3.99
2022-12-23T07:59:52.382Z,3.74
2022-12-23T08:02:22.222Z,3.61
2022-12-23T08:04:50.361Z,3.63
2022-12-23T08:07:17.889Z,3.82
2022-12-23T08:09:45.400Z,3.87
2022-12-23T08:12:13.537Z,3.90
2022-12-23T08:14:41.008Z,3.90
2022-12-23T08:17:08.703Z,3.93
2022-12-23T08:19:36.980Z,4.03
2022-12-23T08:22:04.437Z,4.10
2022-12-23T08:24:31.974Z,4.14
2022-12-23T08:26:59.762Z,4.19
2022-12-23T08:29:34.300Z,4.21
2022-12-23T08:32:04.241Z,3.92
2022-12-23T08:34:31.751Z,4.15
2022-12-23T08:36:59.336Z,4.18
2022-12-23T08:39:27.317Z,4.10
2022-12-23T08:41:54.999Z,3.91
2022-12-23T08:44:22.740Z,3.90
2022-12-23T08:46:50.836Z,4.07
2022-12-23T08:49:18.403Z,4.20
2022-12-23T08:51:46.421Z,4.11
2022-12-23T08:54:14.376Z,4.06
2022-12-23T08:56:42.488Z,4.11
2022-12-23T08:59:18.587Z,3.84
2022-12-23T09:01:48.083Z,4.16
2022-12-23T09:04:15.913Z,4.25
2022-12-23T09:06:44.110Z,4.18
2022-12-23T09:09:14.422Z,4.29
2022-12-23T09:11:42.290Z,4.30
2022-12-23T09:14:11.138Z,4.31
2022-12-23T09:16:39.035Z,4.40
2022-12-23T09:19:07.793Z,4.38
2022-12-23T09:21:36.001Z,4.46
2022-12-23T09:24:04.048Z,4.58
2022-12-23T09:26:32.270Z,4.58
2022-12-23T09:28:59.889Z,4.54
2022-12-23T09:31:35.809Z,4.53
2022-12-23T09:34:04.744Z,4.65
2022-12-23T09:36:32.558Z,4.54
2022-12-23T09:39:00.143Z,4.71
2022-12-23T09:42:03.137Z,4.69
2022-12-23T09:44:33.753Z,4.53
2022-12-23T09:47:04.175Z,4.70
2022-12-23T09:49:32.599Z,4.30
2022-12-23T09:52:03.259Z,4.42
2022-12-23T09:54:38.372Z,4.67
2022-12-23T09:57:23.776Z,4.41
2022-12-23T10:00:07.418Z,4.68
2022-12-23T10:02:58.355Z,4.51
2022-12-23T10:05:31.888Z,4.45
2022-12-23T10:08:23.109Z,4.63
2022-12-23T10:10:54.623Z,4.53
2022-12-23T10:13:35.604Z,4.69
2022-12-23T10:16:20.138Z,4.70
2022-12-23T10:19:04.581Z,4.73
2022-12-23T10:21:48.001Z,4.89
2022-12-23T10:24:24.821Z,4.92
2022-12-23T10:26:55.068Z,5.04
2022-12-23T10:29:29.215Z,4.71
2022-12-23T10:31:56.807Z,4.83
2022-12-23T10:34:38.715Z,4.81
2022-12-23T10:37:14.319Z,4.77
2022-12-23T10:40:12.680Z,4.92
2022-12-23T10:42:46.652Z,5.01
2022-12-23T10:45:36.408Z,5.04
2022-12-23T10:48:26.343Z,5.13
2022-12-23T10:51:24.788Z,5.18
2022-12-23T10:54:14.168Z,5.21
2022-12-23T10:56:43.102Z,5.06
2022-12-23T10:59:15.255Z,5.11
2022-12-23T11:01:45.647Z,5.29
2022-12-23T11:04:16.669Z,5.43
2022-12-23T11:06:48.520Z,5.50
2022-12-23T11:09:24.170Z,5.44
2022-12-23T11:12:12.369Z,5.27
2022-12-23T11:14:57.072Z,5.48
2022-12-23T11:17:26.069Z,5.49
2022-12-23T11:20:10.438Z,5.36
2022-12-23T11:22:49.339Z,5.40
2022-12-23T11:25:33.398Z,5.63
2022-12-23T11:28:16.621Z,5.56
2022-12-23T11:30:56.993Z,5.76
2022-12-23T11:33:49.405Z,5.81
2022-12-23T11:36:24.664Z,5.82
2022-12-23T11:39:07.964Z,6.01
2022-12-23T11:41:38.604Z,6.02
2022-12-23T11:44:12.361Z,6.13
2022-12-23T11:46:39.861Z,6.24
2022-12-23T11:49:25.910Z,6.29
2022-12-23T11:52:02.568Z,6.37
2022-12-23T11:54:31.114Z,6.29
2022-12-23T11:56:59.496Z,6.30
2022-12-23T11:59:36.585Z,6.39
2022-12-23T12:02:14.226Z,6.45
2022-12-23T12:04:42.669Z,6.32
2022-12-23T12:07:13.717Z,6.51
2022-12-23T12:09:43.491Z,6.50
2022-12-23T12:12:17.581Z,6.28
2022-12-23T12:14:48.721Z,6.47
2022-12-23T12:17:27.773Z,6.34
2022-12-23T12:20:18.339Z,6.39
2022-12-23T12:22:52.597Z,6.47
2022-12-23T12:25:22.788Z,6.54
2022-12-23T12:27:56.491Z,6.42
2022-12-23T12:30:31.951Z,6.35
2022-12-23T12:33:05.303Z,6.63
2022-12-23T12:35:54.003Z,6.74
2022-12-23T12:38:27.819Z,6.59
2022-12-23T12:41:03.859Z,6.78
2022-12-23T12:43:38.444Z,6.88
2022-12-23T12:46:06.631Z,6.91
2022-12-23T12:49:00.601Z,6.99
2022-12-23T12:51:42.785Z,6.99
2022-12-23T12:54:26.940Z,6.98
2022-12-23T12:56:56.441Z,7.00
2022-12-23T12:59:35.189Z,7.07
2022-12-23T13:02:32.049Z,7.15
2022-12-23T13:05:30.699Z,7.20
2022-12-23T13:08:16.391Z,7.19
2022-12-23T13:11:10.301Z,7.15
2022-12-23T13:13:59.047Z,7.25
2022-12-23T13:16:48.549Z,7.29
2022-12-23T13:19:27.272Z,7.33
2022-12-23T13:22:05.482Z,7.35
2022-12-23T13:24:43.869Z,7.37
2022-12-23T13:27:13.855Z,7.37
2022-12-23T13:29:58.054Z,7.41
2022-12-23T13:32:51.239Z,7.44
2022-12-23T13:35:40.470Z,7.47
2022-12-23T13:38:19.089Z,7.51
2022-12-23T13:41:23.496Z,7.47
2022-12-23T13:44:02.839Z,7.46
2022-12-23T13:46:30.337Z,7.42
2022-12-23T13:49:13.093Z,7.43
2022-12-23T13:51:52.916Z,7.41
2022-12-23T13:54:32.744Z,7.41
2022-12-23T13:57:08.600Z,7.39
2022-12-23T13:59:44.208Z,7.35
2022-12-23T14:02:36.686Z,7.36
2022-12-23T14:05:10.498Z,7.34
2022-12-23T14:07:44.216Z,7.31
2022-12-23T14:10:22.109Z,7.29
2022-12-23T14:12:51.019Z,7.27
2022-12-23T14:15:25.139Z,7.23
2022-12-23T14:18:08.775Z,7.23
2022-12-23T14:20:50.884Z,7.16
2022-12-23T14:23:42.162Z,7.15
2022-12-23T14:26:28.237Z,7.14
2022-12-23T14:29:46.792Z,7.14
2022-12-23T14:32:25.441Z,7.17
2022-12-23T14:35:25.395Z,7.10
2022-12-23T14:38:08.947Z,7.13
2022-12-23T14:40:39.574Z,7.15
2022-12-23T14:43:22.969Z,7.16
2022-12-23T14:46:01.301Z,7.16
2022-12-23T14:48:44.677Z,7.17
2022-12-23T14:51:15.360Z,7.19
2022-12-23T14:53:52.583Z,7.18
2022-12-23T14:56:38.940Z,7.18
2022-12-23T14:59:12.639Z,7.21
2022-12-23T15:01:42.863Z,7.21
2022-12-23T15:04:10.621Z,7.20
2022-12-23T15:06:40.348Z,7.17
2022-12-23T15:09:10.184Z,7.22
2022-12-23T15:11:40.352Z,7.25
2022-12-23T15:14:14.702Z,7.23
2022-12-23T15:16:45.220Z,7.25
2022-12-23T15:19:20.539Z,7.29
2022-12-23T15:21:55.667Z,7.35
2022-12-23T15:24:28.179Z,7.32
2022-12-23T15:27:25.274Z,7.28
2022-12-23T15:29:48.143Z,7.30
2022-12-23T15:32:17.222Z,7.36
2022-12-23T15:34:44.859Z,7.37
2022-12-23T15:37:12.969Z,7.50
2022-12-23T15:39:45.061Z,7.48
2022-12-23T15:42:34.128Z,7.50
2022-12-23T15:45:21.215Z,7.54
2022-12-23T15:47:50.253Z,7.49
2022-12-23T15:50:19.265Z,7.49
2022-12-23T15:52:49.035Z,7.45
2022-12-23T15:55:32.208Z,7.43
2022-12-23T15:58:01.228Z,7.42
2022-12-23T16:00:42.699Z,7.36
2022-12-23T16:03:27.112Z,7.36
2022-12-23T16:05:54.968Z,7.31
2022-12-23T16:08:30.155Z,7.26
2022-12-23T16:11:15.067Z,7.22
2022-12-23T16:14:01.225Z,7.16
2022-12-23T16:16:39.225Z,7.17
2022-12-23T16:19:27.275Z,7.11
2022-12-23T16:21:55.071Z,7.02
2022-12-23T16:24:22.890Z,6.92
2022-12-23T16:26:50.533Z,6.88
2022-12-23T16:29:18.214Z,6.82
2022-12-23T16:31:52.054Z,6.82
2022-12-23T16:34:23.668Z,6.75
2022-12-23T16:36:51.439Z,6.70
2022-12-23T16:39:22.338Z,6.73
2022-12-23T16:41:50.485Z,6.67
2022-12-23T16:44:18.310Z,6.68
2022-12-23T16:46:48.807Z,6.61
2022-12-23T16:49:21.459Z,6.47
2022-12-23T16:51:49.387Z,6.39
2022-12-23T16:54:20.439Z,6.38
2022-12-23T16:56:47.990Z,6.40
2022-12-23T16:59:16.105Z,6.37
2022-12-23T17:01:46.062Z,6.25
2022-12-23T17:04:14.278Z,6.17
2022-12-23T17:06:42.204Z,5.97
2022-12-23T17:09:10.759Z,5.93
2022-12-23T17:11:39.412Z,5.95
2022-12-23T17:14:13.562Z,5.97
2022-12-23T17:16:43.971Z,5.98
2022-12-23T17:19:12.073Z,5.93
2022-12-23T17:21:41.555Z,5.96
2022-12-23T17:24:25.475Z,5.99
2022-12-23T17:26:54.225Z,6.03
2022-12-23T17:29:21.873Z,6.06
2022-12-23T17:31:50.549Z,6.08
2022-12-23T17:34:23.389Z,6.10
2022-12-23T17:36:51.699Z,6.12
2022-12-23T17:39:21.451Z,6.11
2022-12-23T17:41:49.683Z,6.10
2022-12-23T17:44:18.537Z,6.06
2022-12-23T17:46:46.702Z,5.97
2022-12-23T17:49:14.320Z,5.92
2022-12-23T17:51:42.274Z,5.91
2022-12-23T17:54:23.939Z,5.91
2022-12-23T17:56:51.658Z,5.91
2022-12-23T17:59:21.233Z,5.85
2022-12-23T18:01:48.857Z,5.74
2022-12-23T18:04:16.830Z,5.65
2022-12-23T18:06:44.377Z,5.68
2022-12-23T18:09:11.919Z,5.70
2022-12-23T18:11:42.202Z,5.73
2022-12-23T18:14:16.565Z,5.76
2022-12-23T18:16:44.487Z,5.77
2022-12-23T18:19:18.134Z,5.78
2022-12-23T18:21:46.463Z,5.81
2022-12-23T18:24:14.074Z,5.79
2022-12-23T18:26:41.895Z,5.80
2022-12-23T18:29:09.697Z,5.82
2022-12-23T18:31:49.999Z,5.83
2022-12-23T18:34:19.160Z,5.83
2022-12-23T18:36:48.348Z,5.85
2022-12-23T18:39:16.134Z,5.88
2022-12-23T18:41:43.974Z,5.87
2022-12-23T18:44:21.275Z,5.84
2022-12-23T18:46:49.575Z,5.84
2022-12-23T18:49:17.312Z,5.82
2022-12-23T18:51:45.552Z,5.82
2022-12-23T18:54:17.143Z,5.83
2022-12-23T18:56:44.908Z,5.79
2022-12-23T18:59:18.562Z,5.83
2022-12-23T19:01:47.752Z,5.81
2022-12-23T19:04:15.812Z,5.78
2022-12-23T19:06:43.425Z,5.82
2022-12-23T19:09:19.406Z,5.82
2022-12-23T19:11:49.009Z,5.82
2022-12-23T19:14:16.632Z,5.82
2022-12-23T19:16:50.881Z,5.81
2022-12-23T19:19:19.690Z,5.81
2022-12-23T19:21:47.501Z,5.79
2022-12-23T19:24:15.004Z,5.78
2022-12-23T19:26:42.839Z,5.74
2022-12-23T19:29:10.504Z,5.68
2022-12-23T19:31:38.194Z,5.73
2022-12-23T19:34:12.699Z,5.71
2022-12-23T19:36:42.748Z,5.69
2022-12-23T19:39:16.500Z,5.60
2022-12-23T19:41:46.269Z,5.58
2022-12-23T19:44:14.773Z,5.61
2022-12-23T19:46:42.352Z,5.63
2022-12-23T19:49:15.695Z,5.62
2022-12-23T19:51:47.501Z,5.57
2022-12-23T19:54:15.481Z,5.50
2022-12-23T19:56:43.019Z,5.48
2022-12-23T19:59:11.243Z,5.49
2022-12-23T20:01:38.843Z,5.50
2022-12-23T20:04:06.689Z,5.51
2022-12-23T20:06:35.515Z,5.49
2022-12-23T20:09:06.570Z,5.44
2022-12-23T20:11:36.872Z,5.46
2022-12-23T20:14:04.760Z,5.49
2022-12-23T20:16:33.510Z,5.50
2022-12-23T20:19:01.793Z,5.49
2022-12-23T20:21:29.409Z,5.44
2022-12-23T20:23:57.195Z,5.44
2022-12-23T20:26:25.024Z,5.37
2022-12-23T20:28:52.861Z,5.42
2022-12-23T20:31:25.964Z,5.39
2022-12-23T20:33:54.592Z,5.30
2022-12-23T20:36:24.648Z,5.27
2022-12-23T20:38:53.368Z,5.35
2022-12-23T20:41:23.209Z,5.35
2022-12-23T20:44:09.281Z,5.36
2022-12-23T20:46:39.668Z,5.35
2022-12-23T20:49:07.507Z,5.53
2022-12-23T20:51:34.998Z,5.62
2022-12-23T20:54:02.808Z,5.72
2022-12-23T20:56:30.533Z,5.79
2022-12-23T20:58:59.286Z,5.81
2022-12-23T21:01:38.054Z,5.77
2022-12-23T21:04:08.666Z,5.82
2022-12-23T21:06:36.556Z,5.83
2022-12-23T21:09:06.806Z,5.85
2022-12-23T21:11:40.849Z,5.86
2022-12-23T21:14:09.092Z,5.87
2022-12-23T21:16:38.172Z,5.90
2022-12-23T21:19:07.434Z,5.91
2022-12-23T21:21:35.259Z,5.91
2022-12-23T21:24:04.800Z,5.93
2022-12-23T21:26:34.054Z,5.94
2022-12-23T21:29:04.068Z,5.94
2022-12-23T21:31:33.770Z,5.99
2022-12-23T21:34:02.153Z,5.99
2022-12-23T21:36:32.075Z,6.01
2022-12-23T21:39:00.491Z,6.03
2022-12-23T21:41:34.578Z,6.01
2022-12-23T21:44:02.840Z,5.97
2022-12-23T21:46:30.691Z,6.00
2022-12-23T21:48:59.112Z,6.02
2022-12-23T21:51:38.914Z,6.02
2022-12-23T21:54:09.178Z,6.02
2022-12-23T21:56:37.240Z,6.02
2022-12-23T21:59:07.759Z,5.98
2022-12-23T22:01:35.676Z,5.96
2022-12-23T22:04:03.746Z,5.95
2022-12-23T22:06:37.207Z,5.94
2022-12-23T22:09:06.668Z,5.94
2022-12-23T22:11:35.717Z,5.93
2022-12-23T22:14:04.518Z,5.92
2022-12-23T22:16:32.622Z,5.91
2022-12-23T22:19:01.008Z,5.87
2022-12-23T22:21:30.482Z,5.89
2022-12-23T22:23:59.263Z,5.88
2022-12-23T22:26:30.102Z,5.85
2022-12-23T22:28:59.707Z,5.89
2022-12-23T22:31:46.411Z,5.90
2022-12-23T22:34:17.285Z,5.93
2022-12-23T22:36:45.360Z,5.94
2022-12-23T22:39:20.007Z,5.98
2022-12-23T22:41:50.368Z,5.99
2022-12-23T22:44:18.720Z,6.02
2022-12-23T22:46:46.296Z,6.06
2022-12-23T22:49:15.418Z,6.14
2022-12-23T22:51:43.709Z,6.17
2022-12-23T22:54:11.333Z,6.25
2022-12-23T22:56:39.197Z,6.27
2022-12-23T22:59:07.228Z,6.34
2022-12-23T23:01:36.440Z,6.38
2022-12-23T23:04:04.717Z,6.41
2022-12-23T23:06:37.901Z,6.40
2022-12-23T23:09:07.583Z,6.47
2022-12-23T23:11:35.285Z,6.60
2022-12-23T23:14:03.597Z,6.63
2022-12-23T23:16:31.932Z,6.81
2022-12-23T23:19:00.217Z,6.71
2022-12-23T23:21:27.802Z,6.64
2022-12-23T23:23:55.569Z,6.68
2022-12-23T23:26:27.609Z,6.79
2022-12-23T23:28:56.107Z,6.75
2022-12-23T23:31:41.945Z,6.90
2022-12-23T23:34:11.822Z,6.82
2022-12-23T23:36:39.868Z,6.81
2022-12-23T23:39:07.959Z,6.86
2022-12-23T23:41:36.064Z,6.88
2022-12-23T23:44:04.330Z,6.85
2022-12-23T23:46:31.944Z,6.83
2022-12-23T23:48:59.923Z,6.84
2022-12-23T23:51:27.635Z,6.85
2022-12-23T23:53:55.262Z,6.85
2022-12-23T23:56:25.825Z,6.83
2022-12-23T23:58:54.404Z,6.82
